首页
METAR-TAF:

METAR-TAF

机场 :

达拉斯/沃思堡国际机场

達拉斯 / 沃思堡, 得克萨斯州, 美国

纬度: 32-53-49N, 经度: 097-01-19W, 海拔: 183米

当前天气观测

该预报发布于1小时和3分钟前的04:53 UTC
风速4节,风向南转南东
温度 27°C
湿度 62%
气压 1014 hPa
能見度: 16.1公里
天空无云

METAR: KDFW 140453Z 16004KT 10SM CLR 27/19 A2995 RMK AO2 SLP131 T02720194

时间: 00:56 (05:56 UTC)

预报

该预报发布于36分钟前的05:20 UTC
预报有效从14日的 06点(UTC)到 15日的 12点(UTC)
风速8节,风向南转南东
能見度: 10公里
少量云层高于25000英尺

TAF: KDFW 140520Z 1406/1512 15008KT P6SM FEW250

超过4000个机场的气象观测和天气预报(METAR&TAF报告)。

可查询的气象台以黄色和红色小点在地图上表示。

将鼠标移到小点上方,可查看气象台名称。

然后点击查看天气观测和预报。

如需切换地图:点击带黑十字的绿色按钮放大地图;点击带横线的绿色按钮缩小地图;或者点击绿色箭头查看邻近地区的地图。


METAR-TAF: